sensor_id;sensor_type;location;lat;lon;timestamp;P1;durP1;ratioP1;P2;durP2;ratioP2
17852;SDS011;9052;53.494;14.376;2024-01-15T00:00:58;6.77;;;5.30;;
17852;SDS011;9052;53.494;14.376;2024-01-15T00:03:25;10.80;;;6.37;;
17852;SDS011;9052;53.494;14.376;2024-01-15T00:05:52;7.27;;;6.20;;
17852;SDS011;9052;53.494;14.376;2024-01-15T00:08:19;19.00;;;7.00;;
17852;SDS011;9052;53.494;14.376;2024-01-15T00:10:46;8.00;;;5.80;;
17852;SDS011;9052;53.494;14.376;2024-01-15T00:13:13;7.47;;;6.67;;
17852;SDS011;9052;53.494;14.376;2024-01-15T00:15:41;7.87;;;5.90;;
17852;SDS011;9052;53.494;14.376;2024-01-15T00:18:08;8.37;;;6.37;;
17852;SDS011;9052;53.494;14.376;2024-01-15T00:20:35;11.90;;;6.27;;
17852;SDS011;9052;53.494;14.376;2024-01-15T00:23:03;9.60;;;7.13;;
17852;SDS011;9052;53.494;14.376;2024-01-15T00:25:30;6.83;;;5.90;;
17852;SDS011;9052;53.494;14.376;2024-01-15T00:27:57;8.63;;;6.60;;
17852;SDS011;9052;53.494;14.376;2024-01-15T00:30:24;13.33;;;6.30;;
17852;SDS011;9052;53.494;14.376;2024-01-15T00:32:52;8.70;;;6.20;;
17852;SDS011;9052;53.494;14.376;2024-01-15T00:35:19;13.03;;;7.90;;
17852;SDS011;9052;53.494;14.376;2024-01-15T00:37:46;8.90;;;7.13;;
17852;SDS011;9052;53.494;14.376;2024-01-15T00:40:13;8.40;;;6.70;;
17852;SDS011;9052;53.494;14.376;2024-01-15T00:42:41;11.40;;;7.80;;
17852;SDS011;9052;53.494;14.376;2024-01-15T00:45:08;12.70;;;6.50;;
17852;SDS011;9052;53.494;14.376;2024-01-15T00:47:36;13.37;;;6.53;;
17852;SDS011;9052;53.494;14.376;2024-01-15T00:50:05;11.43;;;7.53;;
17852;SDS011;9052;53.494;14.376;2024-01-15T00:52:33;10.60;;;7.97;;
17852;SDS011;9052;53.494;14.376;2024-01-15T00:55:00;10.30;;;7.87;;
17852;SDS011;9052;53.494;14.376;2024-01-15T00:57:27;21.80;;;6.97;;
17852;SDS011;9052;53.494;14.376;2024-01-15T00:59:54;10.63;;;6.97;;
17852;SDS011;9052;53.494;14.376;2024-01-15T01:02:21;11.53;;;6.87;;
17852;SDS011;9052;53.494;14.376;2024-01-15T01:04:48;9.67;;;5.63;;
17852;SDS011;9052;53.494;14.376;2024-01-15T01:07:16;6.87;;;5.90;;
17852;SDS011;9052;53.494;14.376;2024-01-15T01:09:44;6.03;;;4.27;;
17852;SDS011;9052;53.494;14.376;2024-01-15T01:12:13;8.03;;;5.47;;
17852;SDS011;9052;53.494;14.376;2024-01-15T01:14:40;9.10;;;5.07;;
17852;SDS011;9052;53.494;14.376;2024-01-15T01:17:07;13.60;;;5.37;;
17852;SDS011;9052;53.494;14.376;2024-01-15T01:19:34;5.70;;;4.37;;
17852;SDS011;9052;53.494;14.376;2024-01-15T01:22:01;4.10;;;3.83;;
17852;SDS011;9052;53.494;14.376;2024-01-15T01:24:30;3.90;;;3.30;;
17852;SDS011;9052;53.494;14.376;2024-01-15T01:26:57;3.37;;;3.07;;
17852;SDS011;9052;53.494;14.376;2024-01-15T01:29:24;6.10;;;4.23;;
17852;SDS011;9052;53.494;14.376;2024-01-15T01:31:51;4.60;;;3.13;;
17852;SDS011;9052;53.494;14.376;2024-01-15T01:34:18;3.80;;;2.47;;
17852;SDS011;9052;53.494;14.376;2024-01-15T01:36:45;7.20;;;2.40;;
17852;SDS011;9052;53.494;14.376;2024-01-15T01:39:12;4.40;;;2.00;;
17852;SDS011;9052;53.494;14.376;2024-01-15T01:41:41;4.60;;;2.93;;
17852;SDS011;9052;53.494;14.376;2024-01-15T01:44:08;5.73;;;3.20;;
17852;SDS011;9052;53.494;14.376;2024-01-15T01:46:35;3.60;;;2.40;;
17852;SDS011;9052;53.494;14.376;2024-01-15T01:49:04;5.13;;;2.93;;
17852;SDS011;9052;53.494;14.376;2024-01-15T01:51:32;4.60;;;2.33;;
17852;SDS011;9052;53.494;14.376;2024-01-15T01:54:00;7.00;;;3.27;;
17852;SDS011;9052;53.494;14.376;2024-01-15T01:56:27;9.60;;;3.40;;
17852;SDS011;9052;53.494;14.376;2024-01-15T01:58:55;2.80;;;2.50;;
17852;SDS011;9052;53.494;14.376;2024-01-15T02:01:23;2.63;;;1.93;;
17852;SDS011;9052;53.494;14.376;2024-01-15T02:03:50;11.50;;;3.43;;
17852;SDS011;9052;53.494;14.376;2024-01-15T02:06:16;3.27;;;1.60;;
17852;SDS011;9052;53.494;14.376;2024-01-15T02:08:44;8.30;;;1.93;;
17852;SDS011;9052;53.494;14.376;2024-01-15T02:11:11;5.87;;;2.10;;
17852;SDS011;9052;53.494;14.376;2024-01-15T02:13:38;3.67;;;1.33;;
17852;SDS011;9052;53.494;14.376;2024-01-15T02:16:07;6.60;;;1.47;;
17852;SDS011;9052;53.494;14.376;2024-01-15T02:18:40;5.00;;;1.40;;
17852;SDS011;9052;53.494;14.376;2024-01-15T02:21:07;1.50;;;1.10;;
17852;SDS011;9052;53.494;14.376;2024-01-15T02:23:36;8.03;;;1.90;;
17852;SDS011;9052;53.494;14.376;2024-01-15T02:26:03;1.10;;;1.07;;
17852;SDS011;9052;53.494;14.376;2024-01-15T02:28:31;2.07;;;1.53;;
17852;SDS011;9052;53.494;14.376;2024-01-15T02:30:59;4.13;;;1.37;;
17852;SDS011;9052;53.494;14.376;2024-01-15T02:33:26;7.80;;;1.30;;
17852;SDS011;9052;53.494;14.376;2024-01-15T02:35:53;8.87;;;1.80;;
17852;SDS011;9052;53.494;14.376;2024-01-15T02:38:20;6.17;;;1.30;;
17852;SDS011;9052;53.494;14.376;2024-01-15T02:40:49;2.30;;;1.33;;
17852;SDS011;9052;53.494;14.376;2024-01-15T02:43:16;9.20;;;2.40;;
17852;SDS011;9052;53.494;14.376;2024-01-15T02:45:44;1.40;;;1.30;;
17852;SDS011;9052;53.494;14.376;2024-01-15T02:48:11;10.17;;;1.87;;
17852;SDS011;9052;53.494;14.376;2024-01-15T02:50:38;7.90;;;2.00;;
17852;SDS011;9052;53.494;14.376;2024-01-15T02:53:05;3.87;;;0.87;;
17852;SDS011;9052;53.494;14.376;2024-01-15T02:55:32;3.23;;;1.33;;
17852;SDS011;9052;53.494;14.376;2024-01-15T02:58:01;15.10;;;2.10;;
17852;SDS011;9052;53.494;14.376;2024-01-15T03:00:28;3.03;;;1.30;;
17852;SDS011;9052;53.494;14.376;2024-01-15T03:02:55;2.90;;;1.97;;
17852;SDS011;9052;53.494;14.376;2024-01-15T03:05:22;3.23;;;1.10;;
17852;SDS011;9052;53.494;14.376;2024-01-15T03:07:49;4.67;;;1.47;;
17852;SDS011;9052;53.494;14.376;2024-01-15T03:10:16;13.93;;;1.10;;
17852;SDS011;9052;53.494;14.376;2024-01-15T03:12:43;6.63;;;1.53;;
17852;SDS011;9052;53.494;14.376;2024-01-15T03:15:11;5.70;;;1.80;;
17852;SDS011;9052;53.494;14.376;2024-01-15T03:17:38;5.67;;;1.10;;
17852;SDS011;9052;53.494;14.376;2024-01-15T03:20:05;3.90;;;1.43;;
17852;SDS011;9052;53.494;14.376;2024-01-15T03:22:33;1.13;;;1.07;;
17852;SDS011;9052;53.494;14.376;2024-01-15T03:25:00;13.57;;;1.63;;
17852;SDS011;9052;53.494;14.376;2024-01-15T03:27:27;2.10;;;1.10;;
17852;SDS011;9052;53.494;14.376;2024-01-15T03:29:54;2.50;;;1.60;;
17852;SDS011;9052;53.494;14.376;2024-01-15T03:32:23;2.93;;;1.40;;
17852;SDS011;9052;53.494;14.376;2024-01-15T03:34:50;7.07;;;2.40;;
17852;SDS011;9052;53.494;14.376;2024-01-15T03:37:17;7.13;;;1.77;;
17852;SDS011;9052;53.494;14.376;2024-01-15T03:39:44;6.73;;;2.33;;
17852;SDS011;9052;53.494;14.376;2024-01-15T03:42:11;5.50;;;1.43;;
17852;SDS011;9052;53.494;14.376;2024-01-15T03:44:39;5.10;;;1.27;;
17852;SDS011;9052;53.494;14.376;2024-01-15T03:47:06;1.93;;;1.07;;
17852;SDS011;9052;53.494;14.376;2024-01-15T03:49:35;8.83;;;1.47;;
17852;SDS011;9052;53.494;14.376;2024-01-15T03:52:02;7.70;;;2.30;;
17852;SDS011;9052;53.494;14.376;2024-01-15T03:54:29;2.70;;;1.27;;
17852;SDS011;9052;53.494;14.376;2024-01-15T03:56:56;4.47;;;1.53;;
17852;SDS011;9052;53.494;14.376;2024-01-15T03:59:23;7.03;;;1.97;;
17852;SDS011;9052;53.494;14.376;2024-01-15T04:01:50;9.03;;;1.67;;
17852;SDS011;9052;53.494;14.376;2024-01-15T04:04:17;1.27;;;1.03;;
17852;SDS011;9052;53.494;14.376;2024-01-15T04:06:46;3.73;;;1.30;;
17852;SDS011;9052;53.494;14.376;2024-01-15T04:09:13;3.93;;;2.60;;
17852;SDS011;9052;53.494;14.376;2024-01-15T04:11:40;6.43;;;1.53;;
17852;SDS011;9052;53.494;14.376;2024-01-15T04:14:07;2.70;;;1.53;;
17852;SDS011;9052;53.494;14.376;2024-01-15T04:16:34;5.23;;;1.47;;
17852;SDS011;9052;53.494;14.376;2024-01-15T04:19:01;10.43;;;1.63;;
17852;SDS011;9052;53.494;14.376;2024-01-15T04:21:28;3.67;;;1.50;;
17852;SDS011;9052;53.494;14.376;2024-01-15T04:23:57;2.63;;;1.40;;
17852;SDS011;9052;53.494;14.376;2024-01-15T04:26:23;2.43;;;1.13;;
17852;SDS011;9052;53.494;14.376;2024-01-15T04:28:51;3.10;;;1.50;;
17852;SDS011;9052;53.494;14.376;2024-01-15T04:31:21;2.60;;;1.20;;
17852;SDS011;9052;53.494;14.376;2024-01-15T04:33:49;6.67;;;1.87;;
17852;SDS011;9052;53.494;14.376;2024-01-15T04:36:16;10.40;;;1.67;;
17852;SDS011;9052;53.494;14.376;2024-01-15T04:38:43;4.60;;;1.47;;
17852;SDS011;9052;53.494;14.376;2024-01-15T04:41:12;7.93;;;1.77;;
17852;SDS011;9052;53.494;14.376;2024-01-15T04:43:39;11.87;;;1.93;;
17852;SDS011;9052;53.494;14.376;2024-01-15T04:46:06;3.43;;;0.87;;
17852;SDS011;9052;53.494;14.376;2024-01-15T04:48:34;5.37;;;1.03;;
17852;SDS011;9052;53.494;14.376;2024-01-15T04:51:03;2.93;;;1.20;;
17852;SDS011;9052;53.494;14.376;2024-01-15T04:53:31;9.63;;;1.40;;
17852;SDS011;9052;53.494;14.376;2024-01-15T04:55:58;1.07;;;0.80;;
17852;SDS011;9052;53.494;14.376;2024-01-15T04:58:26;1.43;;;0.83;;
17852;SDS011;9052;53.494;14.376;2024-01-15T05:00:54;5.10;;;1.10;;
17852;SDS011;9052;53.494;14.376;2024-01-15T05:03:21;7.93;;;1.87;;
17852;SDS011;9052;53.494;14.376;2024-01-15T05:05:48;2.60;;;1.10;;
17852;SDS011;9052;53.494;14.376;2024-01-15T05:08:15;4.17;;;1.17;;
17852;SDS011;9052;53.494;14.376;2024-01-15T05:10:42;4.63;;;1.20;;
17852;SDS011;9052;53.494;14.376;2024-01-15T05:13:10;0.90;;;0.80;;
17852;SDS011;9052;53.494;14.376;2024-01-15T05:15:38;2.50;;;1.17;;
17852;SDS011;9052;53.494;14.376;2024-01-15T05:18:05;16.93;;;1.37;;
17852;SDS011;9052;53.494;14.376;2024-01-15T05:20:32;3.93;;;1.23;;
17852;SDS011;9052;53.494;14.376;2024-01-15T05:22:59;2.50;;;0.90;;
17852;SDS011;9052;53.494;14.376;2024-01-15T05:25:26;6.10;;;0.83;;
17852;SDS011;9052;53.494;14.376;2024-01-15T05:27:53;2.43;;;1.17;;
17852;SDS011;9052;53.494;14.376;2024-01-15T05:30:20;4.00;;;0.83;;
17852;SDS011;9052;53.494;14.376;2024-01-15T05:32:48;2.20;;;1.23;;
17852;SDS011;9052;53.494;14.376;2024-01-15T05:35:15;11.10;;;1.00;;
17852;SDS011;9052;53.494;14.376;2024-01-15T05:37:43;2.47;;;0.70;;
17852;SDS011;9052;53.494;14.376;2024-01-15T05:40:11;4.43;;;1.00;;
17852;SDS011;9052;53.494;14.376;2024-01-15T05:42:38;15.43;;;1.20;;
17852;SDS011;9052;53.494;14.376;2024-01-15T05:45:06;3.90;;;0.90;;
17852;SDS011;9052;53.494;14.376;2024-01-15T05:47:33;10.43;;;2.23;;
17852;SDS011;9052;53.494;14.376;2024-01-15T05:50:02;7.20;;;1.07;;
17852;SDS011;9052;53.494;14.376;2024-01-15T05:52:29;2.43;;;0.77;;
17852;SDS011;9052;53.494;14.376;2024-01-15T05:54:57;1.30;;;0.93;;
17852;SDS011;9052;53.494;14.376;2024-01-15T05:57:24;4.77;;;1.63;;
17852;SDS011;9052;53.494;14.376;2024-01-15T05:59:51;7.13;;;1.20;;
17852;SDS011;9052;53.494;14.376;2024-01-15T06:02:18;6.13;;;2.00;;
17852;SDS011;9052;53.494;14.376;2024-01-15T06:04:45;4.53;;;0.90;;
17852;SDS011;9052;53.494;14.376;2024-01-15T06:07:13;10.13;;;1.80;;
17852;SDS011;9052;53.494;14.376;2024-01-15T06:09:40;5.40;;;1.13;;
17852;SDS011;9052;53.494;14.376;2024-01-15T06:12:07;6.10;;;1.10;;
17852;SDS011;9052;53.494;14.376;2024-01-15T06:14:35;4.17;;;0.87;;
17852;SDS011;9052;53.494;14.376;2024-01-15T06:17:02;4.07;;;0.63;;
17852;SDS011;9052;53.494;14.376;2024-01-15T06:19:29;8.33;;;0.83;;
17852;SDS011;9052;53.494;14.376;2024-01-15T06:21:56;3.03;;;0.87;;
17852;SDS011;9052;53.494;14.376;2024-01-15T06:24:24;16.13;;;1.53;;
17852;SDS011;9052;53.494;14.376;2024-01-15T06:26:51;7.43;;;1.47;;
17852;SDS011;9052;53.494;14.376;2024-01-15T06:29:18;4.30;;;0.70;;
17852;SDS011;9052;53.494;14.376;2024-01-15T06:31:45;1.33;;;0.80;;
17852;SDS011;9052;53.494;14.376;2024-01-15T06:34:12;1.87;;;1.00;;
17852;SDS011;9052;53.494;14.376;2024-01-15T06:36:39;3.07;;;1.20;;
17852;SDS011;9052;53.494;14.376;2024-01-15T06:39:06;5.40;;;1.07;;
17852;SDS011;9052;53.494;14.376;2024-01-15T06:41:36;5.03;;;0.90;;
17852;SDS011;9052;53.494;14.376;2024-01-15T06:44:08;1.03;;;0.77;;
17852;SDS011;9052;53.494;14.376;2024-01-15T06:46:35;1.57;;;0.40;;
17852;SDS011;9052;53.494;14.376;2024-01-15T06:49:02;1.90;;;0.70;;
17852;SDS011;9052;53.494;14.376;2024-01-15T06:51:30;1.77;;;0.60;;
17852;SDS011;9052;53.494;14.376;2024-01-15T06:53:57;7.27;;;1.23;;
17852;SDS011;9052;53.494;14.376;2024-01-15T06:56:24;5.83;;;0.70;;
17852;SDS011;9052;53.494;14.376;2024-01-15T06:58:52;1.83;;;0.40;;
17852;SDS011;9052;53.494;14.376;2024-01-15T07:01:19;2.40;;;0.70;;
17852;SDS011;9052;53.494;14.376;2024-01-15T07:03:46;8.70;;;0.40;;
17852;SDS011;9052;53.494;14.376;2024-01-15T07:06:13;0.60;;;0.60;;
17852;SDS011;9052;53.494;14.376;2024-01-15T07:08:42;2.27;;;0.57;;
17852;SDS011;9052;53.494;14.376;2024-01-15T07:11:09;1.23;;;0.50;;
17852;SDS011;9052;53.494;14.376;2024-01-15T07:13:36;0.70;;;0.47;;
17852;SDS011;9052;53.494;14.376;2024-01-15T07:16:05;3.03;;;0.40;;
17852;SDS011;9052;53.494;14.376;2024-01-15T07:18:32;12.03;;;1.10;;
17852;SDS011;9052;53.494;14.376;2024-01-15T07:20:59;6.23;;;1.60;;
17852;SDS011;9052;53.494;14.376;2024-01-15T07:23:28;7.43;;;0.90;;
17852;SDS011;9052;53.494;14.376;2024-01-15T07:25:54;1.53;;;0.57;;
17852;SDS011;9052;53.494;14.376;2024-01-15T07:28:21;8.17;;;0.97;;
17852;SDS011;9052;53.494;14.376;2024-01-15T07:30:48;3.03;;;0.80;;
17852;SDS011;9052;53.494;14.376;2024-01-15T07:33:17;6.37;;;1.90;;
17852;SDS011;9052;53.494;14.376;2024-01-15T07:35:44;2.27;;;1.13;;
17852;SDS011;9052;53.494;14.376;2024-01-15T07:38:11;0.87;;;0.50;;
17852;SDS011;9052;53.494;14.376;2024-01-15T07:40:38;1.60;;;0.67;;
17852;SDS011;9052;53.494;14.376;2024-01-15T07:43:06;0.60;;;0.47;;
17852;SDS011;9052;53.494;14.376;2024-01-15T07:45:33;2.43;;;0.50;;
17852;SDS011;9052;53.494;14.376;2024-01-15T07:48:00;3.70;;;0.70;;
17852;SDS011;9052;53.494;14.376;2024-01-15T07:50:29;1.57;;;1.40;;
17852;SDS011;9052;53.494;14.376;2024-01-15T07:52:57;2.30;;;0.87;;
17852;SDS011;9052;53.494;14.376;2024-01-15T07:55:23;4.73;;;1.07;;
17852;SDS011;9052;53.494;14.376;2024-01-15T07:57:50;2.53;;;1.00;;
17852;SDS011;9052;53.494;14.376;2024-01-15T08:00:19;0.70;;;0.70;;
17852;SDS011;9052;53.494;14.376;2024-01-15T08:02:46;5.30;;;0.73;;
17852;SDS011;9052;53.494;14.376;2024-01-15T08:05:13;1.40;;;0.90;;
17852;SDS011;9052;53.494;14.376;2024-01-15T08:07:41;6.80;;;1.43;;
17852;SDS011;9052;53.494;14.376;2024-01-15T08:10:08;1.37;;;0.70;;
17852;SDS011;9052;53.494;14.376;2024-01-15T08:12:36;1.67;;;1.50;;
17852;SDS011;9052;53.494;14.376;2024-01-15T08:15:03;16.07;;;1.60;;
17852;SDS011;9052;53.494;14.376;2024-01-15T08:17:31;12.53;;;1.00;;
17852;SDS011;9052;53.494;14.376;2024-01-15T08:19:58;2.93;;;0.77;;
17852;SDS011;9052;53.494;14.376;2024-01-15T08:22:26;5.97;;;0.97;;
17852;SDS011;9052;53.494;14.376;2024-01-15T08:24:54;1.07;;;0.40;;
17852;SDS011;9052;53.494;14.376;2024-01-15T08:27:21;3.07;;;1.33;;
17852;SDS011;9052;53.494;14.376;2024-01-15T08:29:48;5.57;;;1.20;;
17852;SDS011;9052;53.494;14.376;2024-01-15T08:32:15;2.97;;;1.10;;
17852;SDS011;9052;53.494;14.376;2024-01-15T08:34:43;1.47;;;1.03;;
17852;SDS011;9052;53.494;14.376;2024-01-15T08:37:11;5.23;;;1.00;;
17852;SDS011;9052;53.494;14.376;2024-01-15T08:39:38;3.07;;;1.03;;
17852;SDS011;9052;53.494;14.376;2024-01-15T08:42:07;6.40;;;1.30;;
17852;SDS011;9052;53.494;14.376;2024-01-15T08:44:34;2.97;;;1.13;;
17852;SDS011;9052;53.494;14.376;2024-01-15T08:47:00;3.83;;;1.20;;
17852;SDS011;9052;53.494;14.376;2024-01-15T08:49:28;1.93;;;1.03;;
17852;SDS011;9052;53.494;14.376;2024-01-15T08:51:55;7.17;;;1.17;;
17852;SDS011;9052;53.494;14.376;2024-01-15T08:54:22;0.87;;;0.60;;
17852;SDS011;9052;53.494;14.376;2024-01-15T08:56:49;5.40;;;0.80;;
17852;SDS011;9052;53.494;14.376;2024-01-15T08:59:17;0.90;;;0.60;;
17852;SDS011;9052;53.494;14.376;2024-01-15T09:01:49;1.23;;;0.60;;
17852;SDS011;9052;53.494;14.376;2024-01-15T09:04:16;2.73;;;0.97;;
17852;SDS011;9052;53.494;14.376;2024-01-15T09:06:44;2.30;;;0.80;;
17852;SDS011;9052;53.494;14.376;2024-01-15T09:09:12;1.90;;;0.50;;
17852;SDS011;9052;53.494;14.376;2024-01-15T09:11:40;0.90;;;0.40;;
17852;SDS011;9052;53.494;14.376;2024-01-15T09:14:07;0.30;;;0.30;;
17852;SDS011;9052;53.494;14.376;2024-01-15T09:16:35;0.73;;;0.37;;
17852;SDS011;9052;53.494;14.376;2024-01-15T09:19:03;0.40;;;0.40;;
17852;SDS011;9052;53.494;14.376;2024-01-15T09:21:30;0.50;;;0.40;;
17852;SDS011;9052;53.494;14.376;2024-01-15T09:23:57;0.77;;;0.47;;
17852;SDS011;9052;53.494;14.376;2024-01-15T09:26:24;0.50;;;0.50;;
17852;SDS011;9052;53.494;14.376;2024-01-15T09:28:51;0.97;;;0.50;;
17852;SDS011;9052;53.494;14.376;2024-01-15T09:31:18;1.50;;;0.60;;
17852;SDS011;9052;53.494;14.376;2024-01-15T09:33:47;1.60;;;0.83;;
17852;SDS011;9052;53.494;14.376;2024-01-15T09:36:14;1.17;;;0.60;;
17852;SDS011;9052;53.494;14.376;2024-01-15T09:38:41;0.50;;;0.50;;
17852;SDS011;9052;53.494;14.376;2024-01-15T09:41:08;1.90;;;0.60;;
17852;SDS011;9052;53.494;14.376;2024-01-15T09:43:35;2.60;;;0.83;;
17852;SDS011;9052;53.494;14.376;2024-01-15T09:46:03;0.60;;;0.60;;
17852;SDS011;9052;53.494;14.376;2024-01-15T09:48:30;0.27;;;0.27;;
17852;SDS011;9052;53.494;14.376;2024-01-15T09:51:00;0.40;;;0.40;;
17852;SDS011;9052;53.494;14.376;2024-01-15T09:53:28;0.50;;;0.50;;
17852;SDS011;9052;53.494;14.376;2024-01-15T09:55:54;0.40;;;0.30;;
17852;SDS011;9052;53.494;14.376;2024-01-15T09:58:21;0.70;;;0.30;;
17852;SDS011;9052;53.494;14.376;2024-01-15T10:00:49;0.60;;;0.30;;
17852;SDS011;9052;53.494;14.376;2024-01-15T10:03:17;5.60;;;0.40;;
17852;SDS011;9052;53.494;14.376;2024-01-15T10:05:44;3.67;;;0.57;;
17852;SDS011;9052;53.494;14.376;2024-01-15T10:08:12;0.40;;;0.40;;
17852;SDS011;9052;53.494;14.376;2024-01-15T10:10:40;1.23;;;0.40;;
17852;SDS011;9052;53.494;14.376;2024-01-15T10:13:08;0.60;;;0.30;;
17852;SDS011;9052;53.494;14.376;2024-01-15T10:15:35;4.50;;;0.97;;
17852;SDS011;9052;53.494;14.376;2024-01-15T10:18:03;0.20;;;0.20;;
17852;SDS011;9052;53.494;14.376;2024-01-15T10:20:31;7.17;;;0.50;;
17852;SDS011;9052;53.494;14.376;2024-01-15T10:22:59;4.93;;;0.53;;
17852;SDS011;9052;53.494;14.376;2024-01-15T10:25:27;3.03;;;0.60;;
17852;SDS011;9052;53.494;14.376;2024-01-15T10:27:59;1.47;;;0.40;;
17852;SDS011;9052;53.494;14.376;2024-01-15T10:30:26;1.47;;;0.73;;
17852;SDS011;9052;53.494;14.376;2024-01-15T10:32:57;0.77;;;0.67;;
17852;SDS011;9052;53.494;14.376;2024-01-15T10:35:26;1.33;;;0.60;;
17852;SDS011;9052;53.494;14.376;2024-01-15T10:37:53;6.03;;;0.43;;
17852;SDS011;9052;53.494;14.376;2024-01-15T10:40:20;0.50;;;0.47;;
17852;SDS011;9052;53.494;14.376;2024-01-15T10:42:49;0.40;;;0.30;;
17852;SDS011;9052;53.494;14.376;2024-01-15T10:45:16;1.80;;;0.63;;
17852;SDS011;9052;53.494;14.376;2024-01-15T10:47:43;0.60;;;0.50;;
17852;SDS011;9052;53.494;14.376;2024-01-15T10:50:11;2.20;;;0.63;;
17852;SDS011;9052;53.494;14.376;2024-01-15T10:52:38;2.23;;;0.63;;
17852;SDS011;9052;53.494;14.376;2024-01-15T10:55:07;0.60;;;0.60;;
17852;SDS011;9052;53.494;14.376;2024-01-15T10:57:35;0.30;;;0.30;;
17852;SDS011;9052;53.494;14.376;2024-01-15T11:00:04;2.20;;;0.80;;
17852;SDS011;9052;53.494;14.376;2024-01-15T11:02:32;1.17;;;0.37;;
17852;SDS011;9052;53.494;14.376;2024-01-15T11:05:01;1.33;;;0.53;;
17852;SDS011;9052;53.494;14.376;2024-01-15T11:07:29;2.53;;;0.50;;
17852;SDS011;9052;53.494;14.376;2024-01-15T11:09:57;2.67;;;0.80;;
17852;SDS011;9052;53.494;14.376;2024-01-15T11:12:24;4.90;;;1.00;;
17852;SDS011;9052;53.494;14.376;2024-01-15T11:14:51;1.27;;;0.63;;
17852;SDS011;9052;53.494;14.376;2024-01-15T11:17:21;0.63;;;0.50;;
17852;SDS011;9052;53.494;14.376;2024-01-15T11:19:48;0.47;;;0.40;;
17852;SDS011;9052;53.494;14.376;2024-01-15T11:25:17;1.37;;;0.60;;
17852;SDS011;9052;53.494;14.376;2024-01-15T11:27:46;2.53;;;0.73;;
17852;SDS011;9052;53.494;14.376;2024-01-15T11:30:16;1.03;;;0.40;;
17852;SDS011;9052;53.494;14.376;2024-01-15T11:32:46;6.60;;;1.43;;
17852;SDS011;9052;53.494;14.376;2024-01-15T11:35:13;1.27;;;0.57;;
17852;SDS011;9052;53.494;14.376;2024-01-15T11:37:58;5.70;;;1.07;;
17852;SDS011;9052;53.494;14.376;2024-01-15T11:40:38;4.77;;;0.70;;
17852;SDS011;9052;53.494;14.376;2024-01-15T11:43:07;5.60;;;0.90;;
17852;SDS011;9052;53.494;14.376;2024-01-15T11:45:35;3.67;;;0.47;;
17852;SDS011;9052;53.494;14.376;2024-01-15T11:48:10;2.30;;;0.50;;
17852;SDS011;9052;53.494;14.376;2024-01-15T11:50:39;0.43;;;0.43;;
17852;SDS011;9052;53.494;14.376;2024-01-15T11:53:08;0.70;;;0.70;;
17852;SDS011;9052;53.494;14.376;2024-01-15T11:55:47;2.87;;;0.97;;
17852;SDS011;9052;53.494;14.376;2024-01-15T11:58:17;0.40;;;0.40;;
17852;SDS011;9052;53.494;14.376;2024-01-15T12:00:45;5.17;;;1.37;;
17852;SDS011;9052;53.494;14.376;2024-01-15T12:03:16;4.40;;;2.50;;
17852;SDS011;9052;53.494;14.376;2024-01-15T12:05:42;0.67;;;0.67;;
17852;SDS011;9052;53.494;14.376;2024-01-15T12:08:09;1.47;;;0.73;;
17852;SDS011;9052;53.494;14.376;2024-01-15T12:10:36;0.87;;;0.53;;
17852;SDS011;9052;53.494;14.376;2024-01-15T12:13:05;2.33;;;0.97;;
17852;SDS011;9052;53.494;14.376;2024-01-15T12:15:36;19.13;;;1.27;;
17852;SDS011;9052;53.494;14.376;2024-01-15T12:18:03;1.10;;;1.10;;
17852;SDS011;9052;53.494;14.376;2024-01-15T12:20:32;0.57;;;0.50;;
17852;SDS011;9052;53.494;14.376;2024-01-15T12:22:59;3.90;;;0.93;;
17852;SDS011;9052;53.494;14.376;2024-01-15T12:25:26;0.90;;;0.90;;
17852;SDS011;9052;53.494;14.376;2024-01-15T12:27:53;2.27;;;0.90;;
17852;SDS011;9052;53.494;14.376;2024-01-15T12:30:20;6.97;;;1.10;;
17852;SDS011;9052;53.494;14.376;2024-01-15T12:32:47;2.00;;;0.50;;
17852;SDS011;9052;53.494;14.376;2024-01-15T12:35:16;0.60;;;0.57;;
17852;SDS011;9052;53.494;14.376;2024-01-15T12:37:47;2.30;;;0.60;;
17852;SDS011;9052;53.494;14.376;2024-01-15T12:40:20;0.97;;;0.60;;
17852;SDS011;9052;53.494;14.376;2024-01-15T12:42:47;6.00;;;0.63;;
17852;SDS011;9052;53.494;14.376;2024-01-15T12:45:14;0.67;;;0.53;;
17852;SDS011;9052;53.494;14.376;2024-01-15T12:47:41;1.60;;;0.63;;
17852;SDS011;9052;53.494;14.376;2024-01-15T12:50:08;0.67;;;0.50;;
17852;SDS011;9052;53.494;14.376;2024-01-15T12:52:35;2.20;;;0.40;;
17852;SDS011;9052;53.494;14.376;2024-01-15T12:55:05;2.93;;;1.37;;
17852;SDS011;9052;53.494;14.376;2024-01-15T12:57:33;4.70;;;0.47;;
17852;SDS011;9052;53.494;14.376;2024-01-15T13:00:01;0.70;;;0.60;;
17852;SDS011;9052;53.494;14.376;2024-01-15T13:02:31;2.23;;;0.50;;
17852;SDS011;9052;53.494;14.376;2024-01-15T13:04:58;0.47;;;0.47;;
17852;SDS011;9052;53.494;14.376;2024-01-15T13:07:26;5.80;;;0.63;;
17852;SDS011;9052;53.494;14.376;2024-01-15T13:09:53;1.07;;;1.03;;
17852;SDS011;9052;53.494;14.376;2024-01-15T13:12:22;1.70;;;1.37;;
17852;SDS011;9052;53.494;14.376;2024-01-15T13:14:49;2.77;;;1.20;;
17852;SDS011;9052;53.494;14.376;2024-01-15T13:17:16;2.00;;;1.23;;
17852;SDS011;9052;53.494;14.376;2024-01-15T13:19:42;2.87;;;0.40;;
17852;SDS011;9052;53.494;14.376;2024-01-15T13:22:09;0.80;;;0.50;;
17852;SDS011;9052;53.494;14.376;2024-01-15T13:24:39;0.50;;;0.50;;
17852;SDS011;9052;53.494;14.376;2024-01-15T13:27:06;2.10;;;0.40;;
17852;SDS011;9052;53.494;14.376;2024-01-15T13:29:35;1.40;;;0.80;;
17852;SDS011;9052;53.494;14.376;2024-01-15T13:32:02;0.60;;;0.60;;
17852;SDS011;9052;53.494;14.376;2024-01-15T13:34:30;5.50;;;0.80;;
17852;SDS011;9052;53.494;14.376;2024-01-15T13:36:56;7.80;;;1.03;;
17852;SDS011;9052;53.494;14.376;2024-01-15T13:39:23;0.93;;;0.70;;
17852;SDS011;9052;53.494;14.376;2024-01-15T13:41:50;3.20;;;0.70;;
17852;SDS011;9052;53.494;14.376;2024-01-15T13:44:18;1.20;;;0.50;;
17852;SDS011;9052;53.494;14.376;2024-01-15T13:46:46;0.33;;;0.33;;
17852;SDS011;9052;53.494;14.376;2024-01-15T13:49:13;0.83;;;0.80;;
17852;SDS011;9052;53.494;14.376;2024-01-15T13:51:40;5.80;;;0.60;;
17852;SDS011;9052;53.494;14.376;2024-01-15T13:54:08;6.37;;;0.60;;
17852;SDS011;9052;53.494;14.376;2024-01-15T13:56:34;1.23;;;0.53;;
17852;SDS011;9052;53.494;14.376;2024-01-15T13:59:01;1.80;;;0.80;;
17852;SDS011;9052;53.494;14.376;2024-01-15T14:01:29;0.70;;;0.60;;
17852;SDS011;9052;53.494;14.376;2024-01-15T14:03:57;3.40;;;0.37;;
17852;SDS011;9052;53.494;14.376;2024-01-15T14:06:24;2.30;;;1.57;;
17852;SDS011;9052;53.494;14.376;2024-01-15T14:08:51;5.80;;;1.40;;
17852;SDS011;9052;53.494;14.376;2024-01-15T14:11:18;0.53;;;0.50;;
17852;SDS011;9052;53.494;14.376;2024-01-15T14:13:45;1.43;;;0.50;;
17852;SDS011;9052;53.494;14.376;2024-01-15T14:16:13;2.80;;;0.80;;
17852;SDS011;9052;53.494;14.376;2024-01-15T14:18:40;1.73;;;1.63;;
17852;SDS011;9052;53.494;14.376;2024-01-15T14:21:09;1.63;;;1.53;;
17852;SDS011;9052;53.494;14.376;2024-01-15T14:23:36;3.47;;;2.47;;
17852;SDS011;9052;53.494;14.376;2024-01-15T14:26:03;1.70;;;0.90;;
17852;SDS011;9052;53.494;14.376;2024-01-15T14:28:30;4.20;;;0.70;;
17852;SDS011;9052;53.494;14.376;2024-01-15T14:30:57;2.43;;;0.70;;
17852;SDS011;9052;53.494;14.376;2024-01-15T14:33:25;1.93;;;1.07;;
17852;SDS011;9052;53.494;14.376;2024-01-15T14:35:52;4.33;;;1.60;;
17852;SDS011;9052;53.494;14.376;2024-01-15T14:38:20;1.27;;;1.00;;
17852;SDS011;9052;53.494;14.376;2024-01-15T14:40:48;2.63;;;1.80;;
17852;SDS011;9052;53.494;14.376;2024-01-15T14:43:15;0.40;;;0.40;;
17852;SDS011;9052;53.494;14.376;2024-01-15T14:45:42;1.30;;;0.83;;
17852;SDS011;9052;53.494;14.376;2024-01-15T14:48:10;0.70;;;0.70;;
17852;SDS011;9052;53.494;14.376;2024-01-15T14:50:38;0.53;;;0.50;;